createdAt,value
2019-02-08T00:03:21.593Z,25.77
2019-02-08T00:07:35.911Z,27.23
2019-02-08T00:11:50.296Z,25.13
2019-02-08T00:16:04.691Z,24.33
2019-02-08T00:20:19.123Z,24.70
2019-02-08T00:24:33.707Z,25.53
2019-02-08T00:28:34.688Z,24.07
2019-02-08T00:32:35.761Z,22.57
2019-02-08T00:36:36.606Z,21.23
2019-02-08T00:40:57.360Z,21.33
2019-02-08T00:44:58.226Z,21.50
2019-02-08T00:49:12.416Z,18.43
2019-02-08T00:53:33.222Z,6.43
2019-02-08T00:57:43.277Z,5.97
2019-02-08T01:01:57.992Z,4.90
2019-02-08T01:06:12.522Z,5.37
2019-02-08T01:10:26.972Z,4.67
2019-02-08T01:14:28.096Z,4.50
2019-02-08T01:18:48.936Z,5.63
2019-02-08T01:23:09.703Z,5.67
2019-02-08T01:27:30.630Z,5.33
2019-02-08T01:31:31.561Z,4.27
2019-02-08T01:35:52.435Z,8.53
2019-02-08T01:40:34.954Z,12.23
2019-02-08T01:44:35.931Z,16.67
2019-02-08T01:48:50.346Z,17.33
2019-02-08T01:53:04.965Z,6.33
2019-02-08T01:57:19.562Z,3.77
2019-02-08T02:01:34.286Z,4.50
2019-02-08T02:05:48.027Z,6.03
2019-02-08T02:09:49.046Z,6.43
2019-02-08T02:14:09.887Z,7.53
2019-02-08T02:18:30.713Z,6.37
2019-02-08T02:22:51.681Z,5.70
2019-02-08T02:27:12.424Z,6.77
2019-02-08T02:31:33.239Z,5.70
2019-02-08T02:35:54.117Z,6.77
2019-02-08T02:39:55.106Z,7.93
2019-02-08T02:43:56.045Z,9.23
2019-02-08T02:48:16.901Z,8.03
2019-02-08T02:52:31.479Z,7.57
2019-02-08T02:56:46.210Z,8.33
2019-02-08T03:00:47.386Z,7.93
2019-02-08T03:05:08.390Z,9.10
2019-02-08T03:09:29.265Z,8.17
2019-02-08T03:13:50.290Z,7.33
2019-02-08T03:18:11.109Z,7.27
2019-02-08T03:22:11.980Z,7.83
2019-02-08T03:26:32.823Z,9.70
2019-02-08T03:35:35.929Z,9.70
2019-02-08T03:39:56.774Z,10.50
2019-02-08T03:43:57.649Z,10.97
2019-02-08T03:48:18.578Z,9.30
2019-02-08T03:52:32.905Z,9.73
2019-02-08T03:56:47.360Z,9.17
2019-02-08T04:01:02.893Z,9.03
2019-02-08T04:05:17.372Z,8.03
2019-02-08T04:09:34.425Z,9.87
2019-02-08T04:13:35.349Z,9.73
2019-02-08T04:17:56.223Z,9.50
2019-02-08T04:22:16.930Z,11.47
2019-02-08T04:26:37.685Z,9.47
2019-02-08T04:30:58.558Z,11.17
2019-02-08T04:35:19.393Z,10.67
2019-02-08T04:39:40.134Z,9.43
2019-02-08T04:44:00.898Z,10.67
2019-02-08T04:48:21.689Z,10.57
2019-02-08T04:52:35.672Z,9.53
2019-02-08T04:56:50.145Z,9.20
2019-02-08T05:01:03.871Z,8.70
2019-02-08T05:05:18.487Z,7.47
2019-02-08T05:09:33.070Z,9.57
2019-02-08T05:13:47.689Z,8.73
2019-02-08T05:18:02.282Z,8.53
2019-02-08T05:22:17.011Z,9.80
2019-02-08T05:26:31.345Z,8.33
2019-02-08T05:30:45.889Z,8.80
2019-02-08T05:35:00.483Z,8.80
2019-02-08T05:39:01.367Z,8.80
2019-02-08T05:43:22.200Z,9.87
2019-02-08T05:47:43.050Z,13.57
2019-02-08T05:51:57.254Z,13.73
2019-02-08T05:56:11.183Z,15.17
2019-02-08T06:00:27.829Z,14.80
2019-02-08T06:04:43.582Z,16.47
2019-02-08T06:08:58.038Z,14.63
2019-02-08T06:13:12.788Z,16.33
2019-02-08T06:17:27.264Z,19.82
2019-02-08T06:21:41.659Z,17.07
2019-02-08T06:25:55.537Z,17.60
2019-02-08T06:30:10.288Z,16.73
2019-02-08T06:34:24.982Z,16.53
2019-02-08T06:38:39.598Z,18.45
2019-02-08T06:42:40.477Z,16.30
2019-02-08T06:46:41.328Z,14.23
2019-02-08T06:50:56.014Z,14.77
2019-02-08T06:54:57.003Z,17.63
2019-02-08T07:04:00.137Z,15.67
2019-02-08T07:08:40.814Z,15.70
2019-02-08T07:21:58.354Z,12.63
2019-02-08T07:31:07.592Z,12.30
2019-02-08T07:35:48.220Z,10.47
2019-02-08T07:40:48.675Z,11.93
2019-02-08T07:45:29.460Z,9.00
2019-02-08T07:49:45.147Z,8.47
2019-02-08T07:54:18.879Z,10.57
2019-02-08T07:58:34.862Z,8.17
2019-02-08T08:11:53.698Z,8.73
2019-02-08T08:16:12.253Z,9.93
2019-02-08T08:20:46.265Z,12.23
2019-02-08T08:25:02.166Z,9.33
2019-02-08T08:29:21.750Z,9.37
2019-02-08T08:33:35.521Z,11.33
2019-02-08T08:38:16.138Z,14.10
2019-02-08T08:42:56.764Z,15.80
2019-02-08T08:47:39.390Z,17.87
2019-02-08T08:51:53.337Z,20.23
2019-02-08T08:56:08.011Z,22.20
2019-02-08T09:00:22.376Z,23.73
2019-02-08T09:04:36.976Z,23.60
2019-02-08T09:09:19.518Z,22.07
2019-02-08T09:14:00.127Z,21.43
2019-02-08T09:18:40.697Z,19.47
2019-02-08T09:23:21.340Z,17.87
2019-02-08T09:28:01.926Z,19.07
2019-02-08T09:32:42.596Z,19.87
2019-02-08T09:37:23.203Z,15.53
2019-02-08T09:42:03.807Z,17.47
2019-02-08T09:46:44.427Z,14.40
2019-02-08T09:50:58.821Z,14.00
2019-02-08T09:55:12.690Z,13.53
2019-02-08T09:59:26.816Z,15.20
2019-02-08T10:03:41.491Z,11.43
2019-02-08T10:07:56.209Z,11.17
2019-02-08T10:12:11.371Z,12.73
2019-02-08T10:16:25.490Z,12.87
2019-02-08T10:20:39.450Z,12.87
2019-02-08T10:24:54.002Z,13.63
2019-02-08T10:29:08.826Z,12.67
2019-02-08T10:33:25.781Z,14.10
2019-02-08T10:37:40.125Z,14.13
2019-02-08T10:41:53.832Z,9.73
2019-02-08T10:46:08.196Z,11.00
2019-02-08T10:50:22.926Z,10.43
2019-02-08T10:54:37.563Z,10.17
2019-02-08T10:58:52.194Z,11.17
2019-02-08T11:03:06.938Z,10.27
2019-02-08T11:07:27.743Z,10.20
2019-02-08T11:11:38.387Z,7.50
2019-02-08T11:15:52.732Z,9.23
2019-02-08T11:20:07.146Z,9.53
2019-02-08T11:24:21.691Z,10.03
2019-02-08T11:28:36.218Z,11.73
2019-02-08T11:32:49.957Z,13.13
2019-02-08T11:37:04.374Z,12.20
2019-02-08T11:41:18.848Z,12.10
2019-02-08T11:45:33.623Z,11.43
2019-02-08T11:49:48.206Z,11.07
2019-02-08T11:54:02.569Z,11.90
2019-02-08T11:58:17.300Z,12.60
2019-02-08T12:02:31.806Z,12.83
2019-02-08T12:06:46.222Z,12.63
2019-02-08T12:11:00.932Z,13.97
2019-02-08T12:15:15.585Z,11.93
2019-02-08T12:19:30.102Z,11.57
2019-02-08T12:23:44.676Z,10.97
2019-02-08T12:27:59.040Z,10.67
2019-02-08T12:32:12.811Z,9.17
2019-02-08T12:36:27.535Z,9.07
2019-02-08T12:40:42.305Z,9.80
2019-02-08T12:44:43.327Z,8.87
2019-02-08T12:49:04.225Z,10.47
2019-02-08T12:53:05.552Z,9.17
2019-02-08T12:57:26.455Z,8.87
2019-02-08T13:01:47.425Z,10.70
2019-02-08T13:06:08.381Z,9.13
2019-02-08T13:10:29.341Z,8.17
2019-02-08T13:14:50.121Z,7.90
2019-02-08T13:19:10.944Z,9.10
2019-02-08T13:23:31.676Z,8.17
2019-02-08T13:27:52.410Z,7.10
2019-02-08T13:32:13.264Z,6.50
2019-02-08T13:36:34.111Z,6.40
2019-02-08T13:40:54.906Z,7.00
2019-02-08T13:45:15.728Z,5.70
2019-02-08T13:49:36.575Z,5.67
2019-02-08T13:53:50.931Z,8.93
2019-02-08T13:58:06.132Z,5.57
2019-02-08T14:02:20.463Z,5.30
2019-02-08T14:06:35.194Z,6.33
2019-02-08T14:10:49.880Z,5.67
2019-02-08T14:15:04.514Z,5.03
2019-02-08T14:19:18.925Z,5.43
2019-02-08T14:23:33.659Z,5.63
2019-02-08T14:27:48.305Z,6.67
2019-02-08T14:32:02.183Z,6.70
2019-02-08T14:36:17.590Z,4.70
2019-02-08T14:40:32.568Z,3.83
2019-02-08T14:44:47.000Z,4.93
2019-02-08T14:49:01.994Z,4.97
2019-02-08T14:53:16.018Z,4.33
2019-02-08T14:57:29.751Z,4.20
2019-02-08T15:01:44.547Z,3.70
2019-02-08T15:05:59.029Z,3.50
2019-02-08T15:10:13.870Z,4.50
2019-02-08T15:14:28.285Z,3.50
2019-02-08T15:18:29.198Z,6.70
2019-02-08T15:22:50.014Z,4.97
2019-02-08T15:27:10.805Z,3.30
2019-02-08T15:31:31.582Z,2.20
2019-02-08T15:35:52.337Z,2.40
2019-02-08T15:40:33.040Z,3.10
2019-02-08T15:44:53.983Z,3.13
2019-02-08T15:49:14.878Z,2.43
2019-02-08T15:53:29.025Z,3.10
2019-02-08T15:57:43.669Z,2.53
2019-02-08T16:01:58.444Z,3.47
2019-02-08T16:06:13.040Z,3.13
2019-02-08T16:10:55.640Z,2.63
2019-02-08T16:15:36.713Z,3.00
2019-02-08T16:19:57.634Z,3.33
2019-02-08T16:24:18.518Z,2.80
2019-02-08T16:28:39.270Z,2.97
2019-02-08T16:33:00.466Z,3.85
2019-02-08T16:37:21.333Z,3.80
2019-02-08T16:41:42.157Z,9.47
2019-02-08T16:46:03.115Z,3.90
2019-02-08T16:50:45.789Z,6.13
2019-02-08T16:54:47.365Z,4.03
2019-02-08T16:59:08.380Z,4.10
2019-02-08T17:03:29.276Z,4.47
2019-02-08T17:07:50.212Z,4.13
2019-02-08T17:12:10.938Z,4.53
2019-02-08T17:16:31.707Z,4.17
2019-02-08T17:20:52.695Z,3.63
2019-02-08T17:25:13.762Z,4.43
2019-02-08T17:29:34.492Z,4.37
2019-02-08T17:33:55.250Z,5.10
2019-02-08T17:38:16.027Z,4.93
2019-02-08T17:42:36.788Z,6.87
2019-02-08T17:46:57.613Z,5.53
2019-02-08T17:51:12.287Z,5.73
2019-02-08T17:55:54.823Z,3.93
2019-02-08T18:00:37.373Z,4.73
2019-02-08T18:04:58.213Z,3.93
2019-02-08T18:09:18.939Z,4.57
2019-02-08T18:13:39.904Z,5.77
2019-02-08T18:18:01.048Z,5.90
2019-02-08T18:22:21.824Z,5.13
2019-02-08T18:26:42.651Z,6.23
2019-02-08T18:31:03.516Z,4.83
2019-02-08T18:35:24.418Z,3.70
2019-02-08T18:39:45.562Z,3.80
2019-02-08T18:44:06.447Z,3.30
2019-02-08T18:48:27.232Z,3.80
2019-02-08T18:52:41.930Z,3.73
2019-02-08T18:56:43.045Z,3.73
2019-02-08T19:01:26.024Z,3.57
2019-02-08T19:05:46.864Z,5.50
2019-02-08T19:10:29.457Z,5.20
2019-02-08T19:14:50.252Z,4.17
2019-02-08T19:19:11.097Z,4.23
2019-02-08T19:23:31.857Z,4.30
2019-02-08T19:27:54.863Z,4.37
2019-02-08T19:32:15.715Z,3.47
2019-02-08T19:36:36.637Z,4.03
2019-02-08T19:40:57.483Z,3.80
2019-02-08T19:49:38.936Z,3.80
2019-02-08T19:53:39.973Z,3.93
2019-02-08T19:58:00.697Z,3.90
2019-02-08T20:02:21.433Z,3.93
2019-02-08T20:06:42.351Z,4.47
2019-02-08T20:11:03.326Z,3.90
2019-02-08T20:15:24.275Z,4.30
2019-02-08T20:19:45.143Z,4.13
2019-02-08T20:24:06.015Z,4.97
2019-02-08T20:28:07.171Z,4.23
2019-02-08T20:32:28.039Z,4.53
2019-02-08T20:36:29.207Z,5.30
2019-02-08T20:40:50.544Z,4.50
2019-02-08T20:50:14.105Z,6.10
2019-02-08T20:54:28.054Z,5.33
2019-02-08T20:58:49.810Z,4.40
2019-02-08T21:02:59.167Z,5.30
2019-02-08T21:07:13.752Z,4.93
2019-02-08T21:11:14.878Z,6.57
2019-02-08T21:15:35.700Z,5.30
2019-02-08T21:19:56.690Z,5.50
2019-02-08T21:24:17.545Z,6.13
2019-02-08T21:28:38.407Z,6.13
2019-02-08T21:32:59.259Z,5.77
2019-02-08T21:37:20.103Z,5.73
2019-02-08T21:41:41.075Z,6.50
2019-02-08T21:46:02.051Z,6.17
2019-02-08T21:50:22.901Z,6.17
2019-02-08T21:54:36.927Z,6.80
2019-02-08T21:58:51.690Z,6.83
2019-02-08T22:03:07.682Z,6.07
2019-02-08T22:07:22.271Z,6.17
2019-02-08T22:11:37.177Z,6.73
2019-02-08T22:15:52.477Z,5.50
2019-02-08T22:20:08.764Z,6.27
2019-02-08T22:24:23.015Z,6.80
2019-02-08T22:28:37.535Z,6.00
2019-02-08T22:32:51.311Z,8.60
2019-02-08T22:37:06.036Z,4.83
2019-02-08T22:41:20.565Z,4.90
2019-02-08T22:45:35.359Z,5.13
2019-02-08T22:49:50.007Z,6.00
2019-02-08T22:53:50.919Z,6.47
2019-02-08T22:57:51.900Z,5.53
2019-02-08T23:02:12.757Z,7.80
2019-02-08T23:06:33.636Z,4.90
2019-02-08T23:10:34.732Z,5.57
2019-02-08T23:19:39.270Z,5.23
2019-02-08T23:23:40.243Z,5.40
2019-02-08T23:27:41.205Z,4.97
2019-02-08T23:32:14.917Z,6.20
2019-02-08T23:36:24.929Z,5.80
2019-02-08T23:40:45.865Z,4.90
2019-02-08T23:45:26.477Z,6.03
2019-02-08T23:49:47.341Z,4.53
2019-02-08T23:54:02.036Z,4.13
2019-02-08T23:58:16.865Z,4.80
